Terminal Aerodrome Forecast
Issued by NWS Dodge City, KS

Home | Current Version | Previous Version | Graphics & Text | Print | Product List | Glossary Off
Versions: 1 2 3 4 5 6 7 8 9 10 11 12 13 14 15 16 17 18 19 20 21 22 23 24 25 26

000
FTUS43 KDDC 152036 AAB
TAFDDC
TAF AMD
KDDC 152036Z 1521/1618 15016G22KT P6SM SCT090
     FM160000 16016G26KT P6SM -SHRA SCT090
     FM160300 16015G25KT P6SM -SHRA VCTS BKN090CB
      TEMPO 1603/1606 4SM TS OVC040CB
     FM160600 16011G19KT P6SM -SHRA VCTS BKN090CB WS020/19030KT
     FM160700 17011KT P6SM VCTS BKN150CB
     FM161400 19006KT P6SM BKN009=

USA.gov is the U.S. government's official web portal to all federal, state and local government web resources and services.